Algosoo — VGJD — position and weather

sailwx.info

Track history (hours):
 
Tides and Currents Weather Stations Pressure Air Temp Water Temp Dewpoint Dewpoint Depression Visibility Wind Speed Wind Dir Waves Ship Positions

Algosoo

Last reported at 2015-May-20 12:04 UTC. Time now 2015-May-25 21:41 UTC.
Position N 42°31' W 079°56'.

Length 223 m; draft 6.8 m.

Type: Cargo ship. MMSI: 316001799.

Date/timePositionNaut miles runAvg speedWind from/ knotsBaromVisibWave heightAir tempDewpointWater temp
2015-May-20 12:04N 42°31' W 079°56'  
2015-May-16 23:07N 46°58' W 091°21'16 9.9
2015-May-16 21:33N 46°50' W 091°41'1010.2
2015-May-16 20:33N 46°45' W 091°54'6 6.0
2015-May-16 19:34N 46°42' W 092°01'0 0.2
2015-May-16 18:33N 46°42' W 092°01'0 0.0
2015-May-16 17:33N 46°42' W 092°01'0 0.0
2015-May-16 16:32N 46°42' W 092°01'0 0.0
2015-May-16 15:33N 46°42' W 092°01'0 0.0
2015-May-16 14:33N 46°42' W 092°01'0 0.0
2015-May-16 13:33N 46°42' W 092°01'0 0.0
2015-May-16 12:33N 46°42' W 092°01'0 0.0
2015-May-16 11:33N 46°42' W 092°01'0 0.0
2015-May-16 10:33N 46°42' W 092°01'0 0.0
2015-May-16 09:33N 46°42' W 092°01'0 0.0
2015-May-16 08:33N 46°42' W 092°01'0 0.0
2015-May-16 07:33N 46°42' W 092°01'0 0.0
2015-May-16 06:33N 46°42' W 092°01'1 0.8
2015-May-16 05:33N 46°43' W 092°01'1 1.2
2015-May-16 04:33N 46°44' W 091°60'0 0.1
2015-May-16 03:33N 46°44' W 091°60'0 0.0
2015-May-16 02:33N 46°44' W 091°60'0 0.0
2015-May-16 01:33N 46°44' W 091°60'0 0.0
2015-May-16 00:33N 46°43' W 091°60'0 0.0
2015-May-15 23:33N 46°43' W 091°60'0 0.0
2015-May-15 22:33N 46°44' W 091°60'0 0.0
2015-May-15 21:33N 46°44' W 091°60'0 0.0
2015-May-15 20:33N 46°44' W 091°60'0 0.0
2015-May-15 19:33N 46°44' W 091°60'7 6.9
2015-May-15 18:33N 46°46' W 091°50'1111.3
2015-May-15 17:33N 46°51' W 091°36'29610.5
2015-May-14 13:30N 46°29' W 084°26'12 4.2
2015-May-14 10:33N 46°21' W 084°12'7 7.2
2015-May-14 09:32N 46°15' W 084°06'8 8.1
2015-May-14 08:34N 46°08' W 084°01'8 8.4
2015-May-14 07:34N 46°02' W 083°53'9 9.0
2015-May-14 06:33N 45°53' W 083°50'1411.7
2015-May-14 05:23N 45°42' W 083°39'245 6.0
2015-May-12 12:17N 42°29' W 080°08'7 9.1
2015-May-12 11:28N 42°32' W 079°59'  
Track history (hours):
 
Tides and Currents Weather Stations Pressure Air Temp Water Temp Dewpoint Dewpoint Depression Visibility Wind Speed Wind Dir Waves Ship Positions

Algosoo

Last reported at 2015-May-20 12:04 UTC. Time now 2015-May-25 21:41 UTC.
Position N 42°31' W 079°56'.

Length 223 m; draft 6.8 m.

Type: Cargo ship. MMSI: 316001799.

Date/timePositionNaut miles runAvg speedWind from/ knotsBaromVisibWave heightAir tempDewpointWater temp
2015-May-20 12:04N 42°31' W 079°56'  
2015-May-16 23:07N 46°58' W 091°21'16 9.9
2015-May-16 21:33N 46°50' W 091°41'1010.2
2015-May-16 20:33N 46°45' W 091°54'6 6.0
2015-May-16 19:34N 46°42' W 092°01'0 0.2
2015-May-16 18:33N 46°42' W 092°01'0 0.0
2015-May-16 17:33N 46°42' W 092°01'0 0.0
2015-May-16 16:32N 46°42' W 092°01'0 0.0
2015-May-16 15:33N 46°42' W 092°01'0 0.0
2015-May-16 14:33N 46°42' W 092°01'0 0.0
2015-May-16 13:33N 46°42' W 092°01'0 0.0
2015-May-16 12:33N 46°42' W 092°01'0 0.0
2015-May-16 11:33N 46°42' W 092°01'0 0.0
2015-May-16 10:33N 46°42' W 092°01'0 0.0
2015-May-16 09:33N 46°42' W 092°01'0 0.0
2015-May-16 08:33N 46°42' W 092°01'0 0.0
2015-May-16 07:33N 46°42' W 092°01'0 0.0
2015-May-16 06:33N 46°42' W 092°01'1 0.8
2015-May-16 05:33N 46°43' W 092°01'1 1.2
2015-May-16 04:33N 46°44' W 091°60'0 0.1
2015-May-16 03:33N 46°44' W 091°60'0 0.0
2015-May-16 02:33N 46°44' W 091°60'0 0.0
2015-May-16 01:33N 46°44' W 091°60'0 0.0
2015-May-16 00:33N 46°43' W 091°60'0 0.0
2015-May-15 23:33N 46°43' W 091°60'0 0.0
2015-May-15 22:33N 46°44' W 091°60'0 0.0
2015-May-15 21:33N 46°44' W 091°60'0 0.0
2015-May-15 20:33N 46°44' W 091°60'0 0.0
2015-May-15 19:33N 46°44' W 091°60'7 6.9
2015-May-15 18:33N 46°46' W 091°50'1111.3
2015-May-15 17:33N 46°51' W 091°36'29610.5
2015-May-14 13:30N 46°29' W 084°26'12 4.2
2015-May-14 10:33N 46°21' W 084°12'7 7.2
2015-May-14 09:32N 46°15' W 084°06'8 8.1
2015-May-14 08:34N 46°08' W 084°01'8 8.4
2015-May-14 07:34N 46°02' W 083°53'9 9.0
2015-May-14 06:33N 45°53' W 083°50'1411.7
2015-May-14 05:23N 45°42' W 083°39'245 6.0
2015-May-12 12:17N 42°29' W 080°08'7 9.1
2015-May-12 11:28N 42°32' W 079°59'  

Dump ship's entire track history